createdAt,value
2022-12-18T00:00:47.816Z,38.22
2022-12-18T00:03:15.037Z,37.80
2022-12-18T00:05:51.302Z,41.60
2022-12-18T00:08:17.889Z,42.78
2022-12-18T00:10:44.296Z,41.88
2022-12-18T00:13:10.950Z,44.42
2022-12-18T00:15:38.146Z,44.53
2022-12-18T00:18:04.556Z,44.08
2022-12-18T00:20:30.843Z,44.38
2022-12-18T00:22:57.443Z,44.63
2022-12-18T00:25:23.779Z,46.53
2022-12-18T00:27:50.580Z,44.38
2022-12-18T00:30:17.207Z,47.67
2022-12-18T00:32:44.308Z,42.40
2022-12-18T00:35:10.624Z,42.70
2022-12-18T00:37:36.966Z,48.33
2022-12-18T00:40:04.799Z,47.17
2022-12-18T00:42:51.345Z,51.58
2022-12-18T00:45:17.730Z,56.30
2022-12-18T00:47:44.018Z,49.15
2022-12-18T00:50:10.868Z,53.78
2022-12-18T00:52:37.316Z,56.30
2022-12-18T00:55:06.404Z,51.47
2022-12-18T00:57:33.049Z,52.50
2022-12-18T00:59:59.468Z,49.60
2022-12-18T01:02:25.969Z,52.05
2022-12-18T01:04:52.329Z,50.95
2022-12-18T01:07:19.968Z,51.22
2022-12-18T01:09:46.262Z,48.58
2022-12-18T01:12:12.597Z,53.85
2022-12-18T01:14:39.131Z,53.83
2022-12-18T01:17:05.617Z,52.55
2022-12-18T01:19:33.209Z,53.05
2022-12-18T01:21:59.988Z,55.28
2022-12-18T01:24:26.472Z,52.95
2022-12-18T01:26:52.807Z,56.88
2022-12-18T01:29:19.081Z,49.35
2022-12-18T01:31:45.422Z,50.33
2022-12-18T01:34:11.832Z,48.20
2022-12-18T01:36:39.840Z,46.92
2022-12-18T01:39:08.565Z,45.08
2022-12-18T01:41:54.006Z,50.33
2022-12-18T01:44:39.103Z,49.65
2022-12-18T01:47:05.727Z,47.45
2022-12-18T01:49:32.042Z,49.67
2022-12-18T01:51:58.311Z,51.35
2022-12-18T01:54:24.652Z,55.53
2022-12-18T01:56:50.975Z,55.97
2022-12-18T01:59:17.405Z,66.53
2022-12-18T02:01:43.952Z,51.40
2022-12-18T02:04:21.607Z,54.75
2022-12-18T02:06:51.808Z,48.72
2022-12-18T02:09:24.359Z,48.38
2022-12-18T02:11:56.154Z,52.53
2022-12-18T02:14:29.589Z,64.50
2022-12-18T02:16:58.934Z,65.55
2022-12-18T02:19:38.939Z,54.90
2022-12-18T02:22:05.243Z,59.72
2022-12-18T02:24:34.725Z,62.85
2022-12-18T02:27:04.462Z,49.63
2022-12-18T02:29:34.618Z,58.42
2022-12-18T02:32:02.113Z,54.60
2022-12-18T02:34:31.273Z,51.25
2022-12-18T02:36:59.174Z,52.80
2022-12-18T02:39:27.836Z,62.10
2022-12-18T02:42:08.491Z,54.42
2022-12-18T02:44:36.290Z,52.17
2022-12-18T02:47:04.526Z,58.22
2022-12-18T02:49:49.183Z,52.33
2022-12-18T02:52:29.995Z,53.67
2022-12-18T02:55:00.886Z,59.45
2022-12-18T02:57:34.412Z,52.17
2022-12-18T03:00:04.743Z,60.55
2022-12-18T03:02:39.012Z,48.40
2022-12-18T03:05:11.640Z,49.47
2022-12-18T03:07:43.107Z,58.13
2022-12-18T03:10:14.098Z,51.70
2022-12-18T03:12:44.016Z,52.33
2022-12-18T03:15:17.613Z,47.47
2022-12-18T03:17:47.387Z,50.60
2022-12-18T03:20:17.252Z,53.80
2022-12-18T03:22:45.095Z,51.63
2022-12-18T03:25:14.983Z,51.20
2022-12-18T03:27:45.666Z,50.08
2022-12-18T03:30:14.621Z,54.20
2022-12-18T03:32:43.645Z,52.72
2022-12-18T03:35:11.581Z,50.10
2022-12-18T03:37:38.058Z,48.20
2022-12-18T03:40:05.662Z,47.05
2022-12-18T03:42:38.259Z,51.42
2022-12-18T03:45:13.370Z,50.42
2022-12-18T03:47:59.027Z,52.75
2022-12-18T03:50:25.858Z,51.05
2022-12-18T03:53:01.027Z,52.92
2022-12-18T03:55:29.113Z,54.00
2022-12-18T03:58:00.681Z,52.58
2022-12-18T04:00:35.344Z,50.97
2022-12-18T04:03:09.466Z,37.90
2022-12-18T04:05:44.506Z,50.05
2022-12-18T04:08:12.123Z,50.88
2022-12-18T04:10:42.905Z,52.20
2022-12-18T04:13:10.260Z,54.63
2022-12-18T04:15:38.049Z,51.55
2022-12-18T04:18:08.647Z,55.80
2022-12-18T04:20:41.375Z,56.20
2022-12-18T04:23:08.423Z,55.83
2022-12-18T04:25:34.819Z,47.13
2022-12-18T04:28:11.424Z,56.05
2022-12-18T04:30:39.005Z,56.00
2022-12-18T04:33:09.271Z,54.88
2022-12-18T04:35:35.608Z,57.20
2022-12-18T04:38:01.910Z,59.58
2022-12-18T04:40:28.261Z,58.88
2022-12-18T04:42:55.198Z,51.25
2022-12-18T04:45:21.727Z,56.05
2022-12-18T04:47:48.032Z,52.00
2022-12-18T04:50:14.316Z,55.15
2022-12-18T04:52:40.917Z,51.83
2022-12-18T04:55:07.416Z,54.42
2022-12-18T04:57:33.725Z,56.15
2022-12-18T05:00:00.035Z,55.65
2022-12-18T05:02:26.492Z,57.35
2022-12-18T05:04:52.875Z,51.92
2022-12-18T05:07:19.159Z,59.72
2022-12-18T05:09:45.498Z,54.30
2022-12-18T05:12:11.815Z,54.72
2022-12-18T05:14:38.066Z,52.65
2022-12-18T05:17:04.385Z,58.33
2022-12-18T05:19:30.772Z,54.70
2022-12-18T05:21:57.138Z,51.63
2022-12-18T05:24:23.436Z,57.00
2022-12-18T05:26:49.987Z,54.65
2022-12-18T05:29:16.525Z,59.95
2022-12-18T05:31:42.951Z,60.10
2022-12-18T05:34:09.883Z,48.35
2022-12-18T05:36:37.483Z,57.15
2022-12-18T05:39:04.050Z,58.10
2022-12-18T05:41:30.789Z,55.40
2022-12-18T05:43:57.195Z,52.00
2022-12-18T05:46:23.584Z,50.80
2022-12-18T05:48:51.199Z,54.88
2022-12-18T05:51:18.751Z,58.13
2022-12-18T05:53:45.075Z,51.97
2022-12-18T05:56:13.931Z,52.53
2022-12-18T05:58:40.351Z,54.15
2022-12-18T06:01:11.837Z,50.38
2022-12-18T06:03:38.273Z,52.67
2022-12-18T06:06:05.088Z,51.35
2022-12-18T06:08:31.667Z,51.65
2022-12-18T06:10:58.219Z,49.05
2022-12-18T06:13:24.567Z,48.63
2022-12-18T06:15:50.881Z,49.08
2022-12-18T06:18:17.223Z,48.28
2022-12-18T06:20:43.791Z,44.90
2022-12-18T06:23:10.384Z,46.33
2022-12-18T06:25:38.434Z,50.50
2022-12-18T06:28:04.847Z,46.03
2022-12-18T06:30:31.585Z,43.40
2022-12-18T06:32:57.932Z,46.70
2022-12-18T06:35:24.433Z,50.22
2022-12-18T06:37:50.767Z,48.58
2022-12-18T06:40:17.201Z,48.63
2022-12-18T06:42:43.554Z,43.92
2022-12-18T06:45:10.368Z,43.63
2022-12-18T06:47:36.683Z,53.80
2022-12-18T06:50:03.353Z,46.40
2022-12-18T06:52:29.611Z,43.85
2022-12-18T06:54:55.959Z,41.95
2022-12-18T06:57:22.268Z,44.78
2022-12-18T06:59:48.583Z,45.67
2022-12-18T07:02:15.434Z,44.28
2022-12-18T07:04:41.879Z,48.45
2022-12-18T07:07:08.218Z,43.45
2022-12-18T07:09:34.596Z,48.40
2022-12-18T07:12:00.934Z,46.20
2022-12-18T07:14:27.533Z,43.25
2022-12-18T07:16:53.949Z,50.63
2022-12-18T07:19:20.318Z,43.60
2022-12-18T07:21:50.394Z,43.97
2022-12-18T07:24:16.703Z,47.63
2022-12-18T07:26:43.044Z,39.58
2022-12-18T07:29:09.367Z,43.13
2022-12-18T07:31:35.743Z,42.97
2022-12-18T07:34:02.074Z,41.30
2022-12-18T07:36:28.350Z,43.05
2022-12-18T07:38:54.731Z,42.85
2022-12-18T07:41:21.302Z,45.60
2022-12-18T07:43:47.925Z,38.95
2022-12-18T07:46:15.109Z,41.47
2022-12-18T07:48:42.005Z,41.30
2022-12-18T07:51:08.614Z,42.17
2022-12-18T07:53:36.493Z,39.58
2022-12-18T07:58:50.950Z,45.15
2022-12-18T08:01:17.364Z,38.15
2022-12-18T08:03:44.042Z,40.80
2022-12-18T08:06:10.642Z,38.00
2022-12-18T08:08:37.425Z,41.70
2022-12-18T08:11:03.861Z,38.25
2022-12-18T08:13:30.309Z,37.38
2022-12-18T08:16:00.726Z,38.22
2022-12-18T08:18:27.370Z,36.08
2022-12-18T08:20:53.812Z,35.10
2022-12-18T08:23:20.168Z,40.58
2022-12-18T08:25:46.542Z,42.85
2022-12-18T08:28:12.985Z,41.28
2022-12-18T08:30:39.475Z,41.13
2022-12-18T08:33:05.879Z,38.15
2022-12-18T08:35:38.810Z,39.25
2022-12-18T08:38:07.497Z,34.90
2022-12-18T08:40:34.087Z,36.70
2022-12-18T08:43:19.151Z,39.92
2022-12-18T08:45:45.485Z,39.50
2022-12-18T08:48:11.838Z,38.08
2022-12-18T08:50:38.094Z,39.83
2022-12-18T08:53:04.505Z,41.10
2022-12-18T08:55:30.790Z,42.60
2022-12-18T08:57:57.091Z,39.78
2022-12-18T09:00:23.455Z,39.50
2022-12-18T09:02:49.848Z,38.72
2022-12-18T09:05:16.688Z,35.60
2022-12-18T09:07:43.056Z,37.00
2022-12-18T09:10:09.411Z,39.88
2022-12-18T09:12:36.788Z,44.40
2022-12-18T09:15:03.281Z,45.38
2022-12-18T09:17:29.693Z,39.05
2022-12-18T09:19:56.166Z,35.80
2022-12-18T09:22:22.587Z,37.80
2022-12-18T09:24:49.578Z,39.10
2022-12-18T09:27:15.847Z,35.80
2022-12-18T09:29:42.179Z,35.40
2022-12-18T09:32:08.507Z,36.35
2022-12-18T09:34:34.883Z,39.22
2022-12-18T09:37:01.189Z,35.40
2022-12-18T09:39:27.509Z,40.45
2022-12-18T09:41:58.232Z,41.53
2022-12-18T09:44:24.646Z,33.85
2022-12-18T09:47:10.400Z,34.47
2022-12-18T09:49:39.798Z,38.08
2022-12-18T09:52:10.139Z,37.50
2022-12-18T09:54:39.299Z,37.42
2022-12-18T09:57:05.869Z,37.88
2022-12-18T09:59:37.108Z,42.55
2022-12-18T10:02:17.587Z,44.83
2022-12-18T10:04:44.200Z,41.55
2022-12-18T10:07:16.280Z,36.83
2022-12-18T10:10:02.836Z,40.45
2022-12-18T10:12:36.475Z,34.13
2022-12-18T10:15:21.796Z,37.72
2022-12-18T10:18:21.917Z,43.25
2022-12-18T10:20:50.330Z,37.53
2022-12-18T10:23:31.990Z,40.83
2022-12-18T10:26:05.834Z,39.55
2022-12-18T10:28:32.867Z,37.60
2022-12-18T10:30:59.313Z,46.28
2022-12-18T10:33:29.085Z,43.72
2022-12-18T10:35:55.865Z,43.60
2022-12-18T10:38:26.689Z,46.70
2022-12-18T10:40:54.964Z,43.33
2022-12-18T10:43:22.804Z,51.38
2022-12-18T10:46:08.159Z,43.90
2022-12-18T10:48:37.151Z,48.40
2022-12-18T10:51:12.915Z,48.10
2022-12-18T10:53:41.028Z,46.55
2022-12-18T10:56:07.818Z,50.63
2022-12-18T10:58:38.488Z,58.22
2022-12-18T11:01:16.544Z,55.75
2022-12-18T11:04:02.943Z,52.10
2022-12-18T11:06:30.004Z,51.10
2022-12-18T11:09:05.344Z,54.42
2022-12-18T11:11:34.391Z,53.92
2022-12-18T11:14:13.869Z,53.33
2022-12-18T11:17:23.660Z,59.03
2022-12-18T11:19:37.862Z,58.38
2022-12-18T11:22:25.214Z,58.58
2022-12-18T11:25:30.241Z,62.65
2022-12-18T11:27:48.512Z,57.38
2022-12-18T11:30:20.822Z,54.90
2022-12-18T11:32:49.628Z,53.42
2022-12-18T11:35:18.764Z,57.95
2022-12-18T11:37:48.400Z,61.72
2022-12-18T11:40:19.860Z,51.00
2022-12-18T11:42:52.836Z,63.67
2022-12-18T11:45:33.028Z,50.40
2022-12-18T11:48:19.564Z,62.42
2022-12-18T11:50:52.394Z,60.35
2022-12-18T11:53:30.863Z,60.70
2022-12-18T11:56:03.466Z,49.83
2022-12-18T11:58:31.692Z,65.68
2022-12-18T12:01:04.416Z,66.95
2022-12-18T12:03:36.952Z,67.07
2022-12-18T12:06:06.553Z,77.30
2022-12-18T12:08:47.534Z,68.57
2022-12-18T12:11:24.209Z,69.35
2022-12-18T12:13:59.787Z,67.72
2022-12-18T12:16:29.931Z,69.75
2022-12-18T12:18:56.300Z,74.85
2022-12-18T12:21:29.616Z,69.25
2022-12-18T12:23:59.480Z,69.15
2022-12-18T12:26:34.342Z,75.13
2022-12-18T12:29:03.788Z,73.43
2022-12-18T12:32:05.532Z,70.97
2022-12-18T12:34:31.897Z,67.05
2022-12-18T12:37:04.845Z,75.75
2022-12-18T12:39:32.143Z,73.97
2022-12-18T12:42:17.397Z,67.95
2022-12-18T12:44:45.272Z,74.75
2022-12-18T12:47:17.319Z,71.05
2022-12-18T12:49:48.392Z,82.03
2022-12-18T12:52:18.956Z,77.25
2022-12-18T12:54:45.951Z,66.50
2022-12-18T12:57:18.859Z,70.68
2022-12-18T12:59:45.247Z,73.05
2022-12-18T13:02:34.402Z,66.38
2022-12-18T13:05:24.014Z,70.60
2022-12-18T13:07:51.950Z,71.50
2022-12-18T13:10:20.814Z,68.07
2022-12-18T13:13:00.864Z,75.43
2022-12-18T13:15:31.450Z,67.60
2022-12-18T13:18:10.860Z,73.25
2022-12-18T13:21:01.522Z,79.28
2022-12-18T13:23:35.171Z,76.43
2022-12-18T13:26:28.131Z,68.15
2022-12-18T13:28:57.230Z,72.25
2022-12-18T13:31:42.171Z,68.85
2022-12-18T13:34:27.761Z,73.85
2022-12-18T13:36:56.021Z,65.95
2022-12-18T13:39:34.791Z,73.18
2022-12-18T13:42:08.395Z,75.45
2022-12-18T13:44:44.359Z,69.95
2022-12-18T13:47:29.853Z,76.95
2022-12-18T13:49:57.393Z,67.38
2022-12-18T13:52:28.593Z,77.40
2022-12-18T13:54:57.243Z,78.60
2022-12-18T13:57:26.657Z,70.05
2022-12-18T13:59:53.003Z,72.30
2022-12-18T14:02:22.772Z,69.10
2022-12-18T14:04:50.051Z,69.85
2022-12-18T14:07:18.323Z,70.65
2022-12-18T14:10:41.238Z,68.10
2022-12-18T14:12:57.730Z,66.70
2022-12-18T14:15:27.500Z,75.40
2022-12-18T14:17:55.400Z,67.35
2022-12-18T14:20:21.816Z,72.93
2022-12-18T14:22:49.356Z,65.28
2022-12-18T14:25:15.962Z,70.65
2022-12-18T14:27:47.111Z,68.45
2022-12-18T14:30:26.969Z,70.18
2022-12-18T14:33:05.747Z,74.00
2022-12-18T14:35:32.984Z,69.95
2022-12-18T14:38:12.130Z,73.55
2022-12-18T14:40:39.569Z,69.80
2022-12-18T14:43:09.541Z,77.40
2022-12-18T14:45:42.291Z,72.07
2022-12-18T14:48:13.339Z,57.90
2022-12-18T14:50:41.028Z,73.30
2022-12-18T14:53:20.172Z,77.05
2022-12-18T14:55:47.899Z,78.20
2022-12-18T14:58:16.047Z,74.88
2022-12-18T15:00:42.914Z,70.47
2022-12-18T15:03:09.472Z,80.70
2022-12-18T15:05:36.327Z,67.47
2022-12-18T15:08:03.186Z,70.38
2022-12-18T15:10:31.166Z,74.38
2022-12-18T15:12:57.444Z,68.85
2022-12-18T15:15:40.279Z,76.90
2022-12-18T15:18:13.581Z,56.65
2022-12-18T15:20:49.367Z,67.63
2022-12-18T15:23:27.846Z,70.50
2022-12-18T15:25:58.529Z,73.43
2022-12-18T15:28:32.105Z,70.40
2022-12-18T15:30:59.268Z,71.20
2022-12-18T15:33:27.336Z,74.43
2022-12-18T15:36:00.525Z,78.03
2022-12-18T15:38:26.946Z,70.05
2022-12-18T15:40:54.079Z,69.53
2022-12-18T15:43:37.830Z,74.68
2022-12-18T15:46:09.997Z,74.53
2022-12-18T15:48:39.786Z,74.20
2022-12-18T15:51:06.449Z,68.60
2022-12-18T15:53:33.899Z,70.18
2022-12-18T15:56:19.038Z,67.00
2022-12-18T15:58:45.388Z,80.18
2022-12-18T16:01:12.031Z,66.90
2022-12-18T16:03:38.997Z,69.97
2022-12-18T16:06:05.708Z,75.05
2022-12-18T16:08:32.122Z,69.40
2022-12-18T16:10:58.866Z,69.55
2022-12-18T16:13:25.205Z,73.95
2022-12-18T16:15:51.580Z,70.43
2022-12-18T16:18:17.935Z,75.95
2022-12-18T16:20:44.344Z,65.93
2022-12-18T16:23:10.665Z,79.53
2022-12-18T16:25:37.005Z,78.78
2022-12-18T16:28:03.354Z,78.10
2022-12-18T16:30:32.764Z,68.78
2022-12-18T16:33:04.926Z,73.72
2022-12-18T16:35:31.274Z,68.18
2022-12-18T16:37:57.568Z,75.68
2022-12-18T16:40:24.001Z,76.50
2022-12-18T16:42:50.312Z,74.38
2022-12-18T16:45:17.920Z,75.38
2022-12-18T16:47:44.794Z,74.82
2022-12-18T16:50:11.227Z,70.85
2022-12-18T16:52:38.274Z,69.60
2022-12-18T16:55:04.920Z,73.47
2022-12-18T16:57:31.433Z,71.70
2022-12-18T17:00:02.983Z,71.60
2022-12-18T17:02:31.474Z,79.75
2022-12-18T17:04:58.641Z,71.85
2022-12-18T17:07:25.623Z,74.45
2022-12-18T17:09:53.964Z,74.90
2022-12-18T17:12:20.646Z,77.15
2022-12-18T17:14:47.792Z,71.13
2022-12-18T17:17:23.144Z,73.82
2022-12-18T17:19:50.567Z,72.90
2022-12-18T17:22:17.079Z,74.97
2022-12-18T17:24:43.432Z,75.38
2022-12-18T17:27:09.715Z,89.32
2022-12-18T17:29:36.067Z,96.57
2022-12-18T17:32:02.488Z,187.63
2022-12-18T17:34:28.996Z,108.63
2022-12-18T17:36:56.545Z,78.00
2022-12-18T17:39:22.851Z,72.70
2022-12-18T17:41:50.505Z,74.85
2022-12-18T17:44:17.324Z,74.20
2022-12-18T17:46:44.818Z,76.57
2022-12-18T17:49:11.678Z,74.85
2022-12-18T17:51:38.582Z,74.60
2022-12-18T17:54:05.902Z,70.70
2022-12-18T17:56:32.794Z,70.03
2022-12-18T17:58:59.212Z,67.57
2022-12-18T18:01:26.145Z,75.57
2022-12-18T18:03:54.126Z,78.25
2022-12-18T18:06:20.693Z,74.90
2022-12-18T18:08:47.045Z,71.15
2022-12-18T18:11:33.512Z,69.05
2022-12-18T18:14:03.008Z,69.95
2022-12-18T18:16:34.204Z,71.25
2022-12-18T18:19:03.877Z,78.10
2022-12-18T18:21:30.273Z,75.82
2022-12-18T18:24:01.252Z,75.75
2022-12-18T18:26:30.994Z,75.60
2022-12-18T18:28:58.159Z,75.25
2022-12-18T18:31:24.588Z,77.45
2022-12-18T18:33:51.040Z,71.93
2022-12-18T18:36:17.413Z,79.35
2022-12-18T18:38:48.281Z,77.90
2022-12-18T18:41:15.150Z,83.45
2022-12-18T18:43:42.327Z,73.72
2022-12-18T18:46:11.228Z,74.57
2022-12-18T18:48:37.648Z,67.35
2022-12-18T18:51:06.089Z,68.45
2022-12-18T18:53:35.943Z,73.47
2022-12-18T18:56:34.907Z,72.10
2022-12-18T18:58:49.318Z,66.97
2022-12-18T19:01:19.749Z,69.43
2022-12-18T19:03:46.659Z,66.05
2022-12-18T19:06:14.739Z,63.72
2022-12-18T19:08:41.459Z,69.13
2022-12-18T19:11:31.729Z,69.97
2022-12-18T19:14:02.871Z,73.60
2022-12-18T19:16:29.254Z,70.78
2022-12-18T19:19:01.416Z,78.28
2022-12-18T19:21:28.296Z,66.70
2022-12-18T19:23:57.727Z,77.55
2022-12-18T19:26:28.075Z,75.47
2022-12-18T19:29:00.020Z,71.35
2022-12-18T19:31:30.413Z,71.60
2022-12-18T19:33:59.897Z,70.88
2022-12-18T19:36:28.171Z,75.60
2022-12-18T19:38:55.557Z,72.95
2022-12-18T19:41:22.714Z,69.95
2022-12-18T19:43:49.856Z,69.03
2022-12-18T19:46:17.334Z,75.82
2022-12-18T19:48:45.032Z,79.70
2022-12-18T19:51:14.473Z,76.88
2022-12-18T19:53:40.816Z,79.90
2022-12-18T19:56:12.231Z,72.90
2022-12-18T19:58:39.025Z,72.25
2022-12-18T20:01:06.822Z,72.47
2022-12-18T20:03:35.590Z,76.35
2022-12-18T20:06:09.641Z,75.32
2022-12-18T20:08:36.408Z,72.40
2022-12-18T20:11:02.716Z,68.35
2022-12-18T20:13:29.328Z,69.68
2022-12-18T20:15:55.645Z,71.50
2022-12-18T20:18:21.941Z,80.15
2022-12-18T20:20:48.857Z,73.72
2022-12-18T20:23:17.012Z,66.70
2022-12-18T20:25:43.311Z,67.55
2022-12-18T20:28:09.686Z,69.18
2022-12-18T20:30:36.117Z,66.70
2022-12-18T20:33:02.503Z,65.13
2022-12-18T20:35:31.056Z,70.00
2022-12-18T20:37:57.676Z,67.55
2022-12-18T20:40:25.690Z,66.63
2022-12-18T20:42:52.160Z,60.50
2022-12-18T20:45:19.537Z,65.40
2022-12-18T20:47:45.826Z,68.60
2022-12-18T20:50:12.109Z,62.83
2022-12-18T20:52:38.494Z,72.20
2022-12-18T20:55:05.568Z,62.97
2022-12-18T20:57:32.116Z,68.03
2022-12-18T20:59:58.492Z,62.67
2022-12-18T21:02:24.974Z,67.43
2022-12-18T21:04:51.511Z,68.10
2022-12-18T21:07:17.881Z,62.35
2022-12-18T21:09:44.186Z,67.68
2022-12-18T21:12:40.470Z,68.07
2022-12-18T21:15:10.556Z,67.78
2022-12-18T21:17:40.117Z,67.97
2022-12-18T21:20:11.253Z,66.40
2022-12-18T21:22:43.645Z,63.47
2022-12-18T21:25:10.038Z,72.32
2022-12-18T21:27:36.495Z,63.55
2022-12-18T21:30:03.104Z,63.55
2022-12-18T21:32:29.834Z,62.20
2022-12-18T21:34:59.801Z,67.97
2022-12-18T21:37:26.577Z,61.28
2022-12-18T21:39:52.894Z,63.95
2022-12-18T21:42:37.965Z,63.78
2022-12-18T21:45:04.668Z,61.88
2022-12-18T21:47:31.108Z,61.10
2022-12-18T21:49:57.492Z,73.03
2022-12-18T21:52:32.349Z,68.60
2022-12-18T21:55:04.807Z,63.35
2022-12-18T21:57:32.860Z,70.22
2022-12-18T21:59:59.169Z,69.43
2022-12-18T22:02:26.690Z,71.50
2022-12-18T22:04:53.153Z,65.65
2022-12-18T22:07:19.530Z,62.65
2022-12-18T22:09:45.845Z,69.43
2022-12-18T22:12:13.162Z,68.80
2022-12-18T22:14:39.480Z,63.35
2022-12-18T22:17:05.868Z,58.17
2022-12-18T22:19:36.748Z,60.85
2022-12-18T22:22:07.755Z,64.70
2022-12-18T22:24:34.031Z,70.47
2022-12-18T22:27:01.853Z,66.18
2022-12-18T22:29:47.463Z,60.63
2022-12-18T22:32:16.790Z,66.60
2022-12-18T22:34:49.774Z,69.47
2022-12-18T22:37:16.067Z,75.97
2022-12-18T22:39:42.375Z,73.05
2022-12-18T22:42:09.777Z,71.88
2022-12-18T22:44:36.097Z,72.18
2022-12-18T22:47:06.118Z,71.88
2022-12-18T22:49:34.872Z,71.03
2022-12-18T22:52:06.307Z,65.45
2022-12-18T22:54:32.598Z,69.07
2022-12-18T22:56:58.903Z,71.30
2022-12-18T22:59:25.237Z,65.50
2022-12-18T23:01:52.978Z,73.15
2022-12-18T23:04:31.220Z,69.35
2022-12-18T23:07:02.913Z,65.43
2022-12-18T23:09:29.218Z,61.80
2022-12-18T23:11:55.535Z,67.70
2022-12-18T23:14:21.912Z,63.78
2022-12-18T23:16:48.201Z,62.03
2022-12-18T23:19:16.675Z,68.85
2022-12-18T23:21:42.961Z,65.28
2022-12-18T23:24:09.302Z,70.43
2022-12-18T23:26:35.669Z,66.07
2022-12-18T23:29:03.495Z,64.53
2022-12-18T23:31:31.175Z,64.40
2022-12-18T23:33:58.504Z,61.88
2022-12-18T23:36:25.140Z,60.70
2022-12-18T23:38:52.537Z,64.25
2022-12-18T23:41:19.944Z,64.10
2022-12-18T23:43:46.301Z,61.72
2022-12-18T23:46:20.806Z,59.53
2022-12-18T23:48:47.208Z,62.30
2022-12-18T23:51:14.368Z,64.22
2022-12-18T23:53:40.678Z,64.25
2022-12-18T23:56:07.506Z,67.85
2022-12-18T23:58:34.240Z,62.78
